Time;durP1;ratioP1;P1;durP2;ratioP2;P2;SDS_P1;SDS_P2;PMS_P1;PMS_P2;Temp;Humidity;BMP_temperature;BMP_pressure;BME280_temperature;BME280_humidity;BME280_pressure;Samples;Min_cycle;Max_cycle;Signal;HPM_P1;HPM_P2
2022/08/18 00:01:10;;;;;;;15.25;11.40;;;26.30;77.70;;;;;;7643783;22;83507;-67
2022/08/18 00:04:10;;;;;;;15.25;11.13;;;26.30;77.80;;;;;;7643958;22;83093;-66
2022/08/18 00:07:11;;;;;;;17.92;12.27;;;26.30;77.60;;;;;;7645142;22;83006;-65
2022/08/18 00:10:11;;;;;;;21.70;12.88;;;26.40;77.60;;;;;;7645296;22;82786;-66
2022/08/18 00:13:12;;;;;;;17.42;10.98;;;26.30;77.50;;;;;;7645856;22;83355;-65
2022/08/18 00:16:12;;;;;;;18.73;12.05;;;26.40;77.60;;;;;;7645522;22;83019;-65
2022/08/18 00:19:13;;;;;;;18.40;12.07;;;26.40;77.60;;;;;;7645409;22;83217;-66
2022/08/18 00:22:14;;;;;;;18.30;10.98;;;26.50;77.40;;;;;;7645115;22;82813;-65
2022/08/18 00:25:14;;;;;;;16.63;10.88;;;26.50;77.30;;;;;;7645090;22;83802;-66
2022/08/18 00:28:15;;;;;;;17.35;11.70;;;26.50;77.20;;;;;;7645544;22;82827;-66
2022/08/18 00:31:15;;;;;;;19.65;12.68;;;26.50;76.90;;;;;;7645190;22;90175;-66
2022/08/18 00:34:16;;;;;;;20.00;11.95;;;26.50;76.80;;;;;;7645373;22;82719;-66
2022/08/18 00:37:16;;;;;;;19.48;12.20;;;26.50;76.80;;;;;;7645246;22;83331;-65
2022/08/18 00:40:17;;;;;;;18.75;11.77;;;26.50;76.90;;;;;;7645403;22;82803;-67
2022/08/18 00:43:18;;;;;;;19.35;12.57;;;26.60;76.80;;;;;;7645365;22;82832;-66
2022/08/18 00:46:18;;;;;;;22.38;11.95;;;26.60;76.70;;;;;;7645402;22;83432;-67
2022/08/18 00:49:19;;;;;;;19.38;13.25;;;26.60;76.50;;;;;;7644209;22;83948;-66
2022/08/18 00:52:19;;;;;;;18.63;12.13;;;26.50;76.50;;;;;;7645274;22;84287;-65
2022/08/18 00:55:20;;;;;;;18.85;11.50;;;26.60;76.20;;;;;;7645000;22;84119;-65
2022/08/18 00:58:20;;;;;;;18.35;12.02;;;26.50;76.10;;;;;;7645137;22;85184;-66
2022/08/18 01:01:22;;;;;;;16.23;11.57;;;26.50;76.40;;;;;;7646031;22;83098;-67
2022/08/18 01:04:22;;;;;;;22.30;12.43;;;26.50;76.40;;;;;;7645591;22;82995;-67
2022/08/18 01:07:23;;;;;;;15.75;10.95;;;26.60;76.20;;;;;;7645575;22;83023;-65
2022/08/18 01:10:24;;;;;;;15.82;12.02;;;26.50;75.80;;;;;;7645355;22;84625;-65
2022/08/18 01:13:24;;;;;;;18.63;11.23;;;26.50;75.60;;;;;;7645222;22;84411;-65
2022/08/18 01:23:03;;;;;;;18.50;10.98;;;26.50;75.50;;;;;;7645345;22;84106;-67
2022/08/18 01:26:04;;;;;;;22.15;11.93;;;26.40;75.50;;;;;;7645398;22;82924;-67
2022/08/18 01:29:08;;;;;;;19.27;11.80;;;26.40;75.60;;;;;;7644850;22;83314;-65
2022/08/18 01:32:08;;;;;;;18.33;10.32;;;26.40;75.50;;;;;;7644978;22;83393;-64
2022/08/18 01:35:09;;;;;;;16.70;11.38;;;26.40;75.70;;;;;;7645135;22;83133;-65
2022/08/18 01:38:10;;;;;;;17.00;11.70;;;26.30;75.80;;;;;;7645512;22;83257;-65
2022/08/18 01:41:10;;;;;;;20.58;11.70;;;26.30;76.00;;;;;;7645283;22;83102;-66
2022/08/18 01:44:11;;;;;;;19.85;11.80;;;26.30;75.90;;;;;;7645941;22;83532;-64
2022/08/18 01:47:11;;;;;;;21.20;12.13;;;26.20;75.80;;;;;;7645468;22;83070;-64
2022/08/18 01:50:12;;;;;;;25.00;11.57;;;26.30;75.80;;;;;;7645600;22;83949;-66
2022/08/18 01:53:12;;;;;;;19.73;11.90;;;26.30;76.10;;;;;;7644103;22;83151;-67
2022/08/18 01:56:16;;;;;;;21.98;11.68;;;26.30;76.00;;;;;;7645663;22;83452;-67
2022/08/18 01:59:16;;;;;;;19.63;12.00;;;26.30;75.90;;;;;;7645154;22;83278;-64
2022/08/18 02:02:17;;;;;;;17.80;12.45;;;26.20;75.80;;;;;;7645375;22;82760;-66
2022/08/18 02:05:17;;;;;;;17.98;11.30;;;26.20;75.80;;;;;;7644896;22;82971;-66
2022/08/18 02:08:18;;;;;;;16.23;11.68;;;26.30;75.90;;;;;;7645182;22;82792;-63
2022/08/18 02:11:18;;;;;;;18.63;11.82;;;26.30;75.80;;;;;;7644745;22;82962;-63
2022/08/18 02:14:19;;;;;;;16.33;10.82;;;26.30;75.90;;;;;;7643196;22;84950;-64
2022/08/18 02:17:21;;;;;;;17.17;11.43;;;26.30;76.00;;;;;;7645145;22;83101;-67
2022/08/18 02:20:22;;;;;;;15.10;10.30;;;26.40;76.00;;;;;;7645155;22;82966;-65
2022/08/18 02:23:22;;;;;;;28.17;12.45;;;26.40;75.80;;;;;;7645171;22;83282;-67
2022/08/18 02:26:23;;;;;;;23.42;12.18;;;26.40;75.70;;;;;;7643251;22;82895;-67
2022/08/18 02:29:23;;;;;;;16.58;11.68;;;26.40;75.60;;;;;;7644428;22;82897;-65
2022/08/18 02:32:24;;;;;;;18.20;12.77;;;26.40;75.80;;;;;;7644382;22;82937;-64
2022/08/18 02:35:24;;;;;;;21.80;11.95;;;26.40;75.70;;;;;;7644702;22;83059;-65
2022/08/18 02:38:24;;;;;;;18.50;12.13;;;26.40;75.50;;;;;;7644549;22;83570;-68
2022/08/18 02:41:27;;;;;;;18.45;11.38;;;26.40;75.40;;;;;;7644569;22;82726;-65
2022/08/18 02:44:27;;;;;;;18.42;12.38;;;26.40;75.40;;;;;;7644577;22;83002;-67
2022/08/18 02:47:28;;;;;;;23.10;11.80;;;26.40;75.40;;;;;;7643949;22;83073;-68
2022/08/18 02:50:28;;;;;;;17.88;11.50;;;26.40;75.40;;;;;;7641902;22;83951;-65
2022/08/18 02:53:29;;;;;;;20.75;12.35;;;26.40;75.30;;;;;;7644007;22;83271;-67
2022/08/18 02:56:29;;;;;;;16.35;12.20;;;26.50;75.30;;;;;;7644120;22;83044;-67
2022/08/18 02:59:30;;;;;;;16.67;12.25;;;26.40;74.70;;;;;;7644242;22;83079;-65
2022/08/18 03:02:31;;;;;;;24.73;12.60;;;26.30;74.80;;;;;;7643757;22;82836;-66
2022/08/18 03:05:31;;;;;;;16.20;11.30;;;26.40;74.90;;;;;;7644035;22;83079;-67
2022/08/18 03:08:32;;;;;;;21.13;11.93;;;26.40;74.50;;;;;;7644494;22;83044;-65
2022/08/18 03:11:32;;;;;;;17.63;11.55;;;26.30;74.50;;;;;;7644068;22;83179;-66
2022/08/18 03:14:33;;;;;;;18.08;11.52;;;26.30;74.90;;;;;;7644603;22;84239;-68
2022/08/18 03:17:33;;;;;;;16.75;11.52;;;26.30;75.00;;;;;;7644731;22;82826;-66
2022/08/18 03:20:34;;;;;;;18.55;12.73;;;26.30;75.20;;;;;;7643911;22;82986;-67
2022/08/18 03:23:35;;;;;;;22.35;12.73;;;26.30;75.30;;;;;;7644131;22;84172;-68
2022/08/18 03:26:35;;;;;;;17.98;12.10;;;26.30;75.60;;;;;;7644118;22;83082;-66
2022/08/18 03:29:35;;;;;;;25.00;12.32;;;26.30;75.80;;;;;;7643013;22;85991;-66
2022/08/18 03:32:36;;;;;;;17.77;11.85;;;26.30;75.50;;;;;;7644693;22;83125;-66
2022/08/18 03:35:36;;;;;;;16.20;11.23;;;26.20;74.90;;;;;;7645299;22;82972;-66
2022/08/18 03:38:37;;;;;;;19.48;13.45;;;26.30;74.90;;;;;;7645472;22;82757;-70
2022/08/18 03:41:38;;;;;;;16.98;12.20;;;26.20;74.80;;;;;;7644514;22;82740;-64
2022/08/18 03:44:38;;;;;;;19.50;11.38;;;26.30;74.90;;;;;;7644303;22;82809;-70
2022/08/18 03:47:39;;;;;;;20.67;12.57;;;26.30;74.80;;;;;;7644975;22;82734;-65
2022/08/18 03:50:39;;;;;;;19.13;12.82;;;26.30;74.90;;;;;;7644285;22;83469;-65
2022/08/18 03:53:40;;;;;;;16.48;12.40;;;26.40;75.00;;;;;;7643982;22;83116;-65
2022/08/18 03:56:40;;;;;;;20.25;12.73;;;26.40;75.00;;;;;;7643097;22;83282;-66
2022/08/18 03:59:42;;;;;;;24.63;14.85;;;26.40;75.00;;;;;;7643870;22;82993;-65
2022/08/18 04:02:42;;;;;;;21.88;13.82;;;26.40;75.50;;;;;;7642768;22;83121;-65
2022/08/18 04:05:43;;;;;;;24.38;14.40;;;26.40;75.30;;;;;;7642133;22;82903;-66
2022/08/18 04:08:45;;;;;;;26.10;13.43;;;26.40;75.30;;;;;;7643712;22;82981;-67
2022/08/18 04:11:45;;;;;;;21.67;14.20;;;26.40;75.40;;;;;;7643527;22;84134;-64
2022/08/18 04:14:46;;;;;;;24.98;14.77;;;26.40;75.40;;;;;;7642278;22;83865;-66
2022/08/18 04:17:47;;;;;;;30.13;15.40;;;26.40;75.60;;;;;;7642220;22;85999;-65
2022/08/18 04:20:47;;;;;;;25.80;14.52;;;26.40;75.60;;;;;;7643690;22;83151;-64
2022/08/18 04:23:48;;;;;;;19.65;13.43;;;26.40;75.60;;;;;;7643251;22;82859;-64
2022/08/18 04:26:48;;;;;;;22.75;13.82;;;26.40;75.50;;;;;;7643070;22;83035;-64
2022/08/18 04:29:49;;;;;;;22.83;14.32;;;26.40;75.30;;;;;;7643338;22;83372;-64
2022/08/18 04:32:50;;;;;;;19.80;13.07;;;26.40;75.30;;;;;;7642583;22;84102;-64
2022/08/18 04:35:50;;;;;;;22.85;14.52;;;26.30;75.30;;;;;;7640672;22;83365;-63
2022/08/18 04:38:51;;;;;;;20.55;13.27;;;26.40;75.20;;;;;;7643125;22;83153;-63
2022/08/18 04:41:51;;;;;;;16.02;12.65;;;26.40;75.10;;;;;;7641180;22;84116;-63
2022/08/18 04:44:52;;;;;;;20.30;13.38;;;26.40;75.10;;;;;;7642975;22;82946;-63
2022/08/18 04:47:52;;;;;;;21.33;13.55;;;26.40;74.90;;;;;;7642477;22;83336;-64
2022/08/18 04:50:53;;;;;;;21.50;14.82;;;26.40;74.90;;;;;;7642961;22;83360;-64
2022/08/18 04:53:54;;;;;;;23.48;14.10;;;26.40;74.90;;;;;;7643931;22;83007;-63
2022/08/18 04:56:54;;;;;;;19.92;14.00;;;26.40;74.90;;;;;;7644446;22;83214;-64
2022/08/18 04:59:56;;;;;;;19.73;14.05;;;26.40;74.80;;;;;;7642327;22;83030;-64
2022/08/18 05:02:57;;;;;;;23.77;13.35;;;26.40;74.80;;;;;;7644362;22;82894;-64
2022/08/18 05:05:59;;;;;;;23.02;14.65;;;26.40;74.70;;;;;;7644008;22;84127;-64
2022/08/18 05:08:59;;;;;;;20.95;14.05;;;26.30;74.80;;;;;;7643996;22;83221;-64
2022/08/18 05:12:00;;;;;;;19.40;14.32;;;26.40;75.00;;;;;;7643992;22;84582;-64
2022/08/18 05:15:00;;;;;;;22.33;14.63;;;26.40;75.00;;;;;;7644138;22;83217;-65
2022/08/18 05:18:01;;;;;;;30.52;14.63;;;26.40;75.00;;;;;;7644036;22;84072;-66
2022/08/18 05:21:02;;;;;;;19.08;14.00;;;26.30;74.80;;;;;;7643828;22;82923;-66
2022/08/18 05:24:02;;;;;;;20.77;13.32;;;26.30;74.90;;;;;;7643632;22;83314;-65
2022/08/18 05:27:03;;;;;;;20.58;13.65;;;26.40;75.10;;;;;;7644042;22;83084;-65
2022/08/18 05:30:03;;;;;;;19.70;13.27;;;26.40;74.70;;;;;;7643545;22;83374;-65
2022/08/18 05:33:04;;;;;;;21.52;12.25;;;26.40;74.80;;;;;;7644363;22;83038;-65
2022/08/18 05:36:04;;;;;;;21.67;11.95;;;26.40;74.90;;;;;;7644008;22;83131;-64
2022/08/18 05:39:05;;;;;;;17.23;11.43;;;26.50;74.70;;;;;;7644550;22;83233;-64
2022/08/18 05:42:06;;;;;;;19.27;12.50;;;26.50;74.70;;;;;;7644541;22;82932;-64
2022/08/18 05:45:06;;;;;;;19.80;10.90;;;26.50;74.60;;;;;;7644472;22;83105;-64
2022/08/18 05:48:07;;;;;;;20.40;12.30;;;26.50;74.70;;;;;;7642886;22;83098;-65
2022/08/18 05:51:07;;;;;;;16.92;11.68;;;26.60;74.80;;;;;;7642787;22;83834;-64
2022/08/18 05:57:27;;;;;;;17.90;11.27;;;26.60;74.60;;;;;;7643995;22;82923;-64
2022/08/18 06:00:27;;;;;;;24.38;11.57;;;26.60;74.70;;;;;;7643888;22;83263;-63
2022/08/18 06:03:28;;;;;;;19.15;11.18;;;26.70;74.80;;;;;;7643898;22;82892;-63
2022/08/18 06:06:29;;;;;;;16.65;11.15;;;26.70;74.50;;;;;;7643893;22;82794;-63
2022/08/18 06:09:29;;;;;;;17.23;11.57;;;26.70;74.30;;;;;;7643845;22;82820;-63
2022/08/18 06:12:30;;;;;;;20.05;11.45;;;26.70;74.40;;;;;;7643343;22;84229;-62
2022/08/18 06:15:30;;;;;;;18.30;11.50;;;26.70;74.60;;;;;;7643792;22;83202;-63
2022/08/18 06:18:30;;;;;;;17.33;11.70;;;26.70;74.80;;;;;;7643981;22;83114;-63
2022/08/18 06:21:31;;;;;;;20.98;12.10;;;26.70;74.70;;;;;;7644382;22;83056;-64
2022/08/18 06:24:32;;;;;;;20.05;12.80;;;26.70;75.10;;;;;;7643866;22;83956;-64
2022/08/18 06:27:32;;;;;;;17.98;11.80;;;26.60;75.50;;;;;;7644087;22;82976;-64
2022/08/18 06:30:33;;;;;;;28.13;13.38;;;26.60;76.10;;;;;;7644216;22;83190;-64
2022/08/18 06:33:33;;;;;;;22.95;13.43;;;26.70;75.70;;;;;;7643900;22;83875;-64
2022/08/18 06:36:34;;;;;;;18.77;11.45;;;26.60;75.80;;;;;;7644370;22;82943;-67
2022/08/18 06:39:34;;;;;;;17.05;12.20;;;26.70;76.30;;;;;;7645276;22;82879;-72
2022/08/18 06:42:35;;;;;;;24.77;12.73;;;26.70;76.30;;;;;;7645397;22;83221;-65
2022/08/18 06:45:35;;;;;;;16.67;12.02;;;26.70;76.50;;;;;;7644972;22;83500;-64
2022/08/18 06:48:36;;;;;;;15.77;11.90;;;26.70;76.80;;;;;;7644633;22;83113;-64
2022/08/18 06:51:36;;;;;;;17.70;12.40;;;26.70;77.30;;;;;;7644377;22;82842;-64
2022/08/18 06:54:37;;;;;;;19.38;12.00;;;26.70;77.70;;;;;;7644324;22;83023;-64
2022/08/18 06:57:37;;;;;;;18.52;11.60;;;26.70;78.30;;;;;;7643833;22;83468;-64
2022/08/18 07:00:38;;;;;;;19.25;11.98;;;26.70;78.60;;;;;;7644409;22;82944;-64
2022/08/18 07:03:38;;;;;;;22.27;12.43;;;26.70;77.90;;;;;;7644081;22;84256;-64
2022/08/18 07:06:40;;;;;;;22.20;12.50;;;26.80;78.50;;;;;;7644075;22;82991;-64
2022/08/18 07:09:40;;;;;;;35.53;11.80;;;26.80;78.50;;;;;;7644078;22;83131;-63
2022/08/18 07:12:40;;;;;;;20.38;12.50;;;26.80;79.00;;;;;;7644460;22;83116;-63
2022/08/18 07:15:44;;;;;;;15.23;11.75;;;26.80;79.50;;;;;;7643412;22;83118;-64
2022/08/18 07:18:46;;;;;;;15.38;11.55;;;26.90;78.60;;;;;;7644978;22;83434;-66
2022/08/18 07:21:46;;;;;;;19.55;11.70;;;26.90;78.70;;;;;;7644024;22;83126;-65
2022/08/18 07:24:47;;;;;;;52.85;24.30;;;26.90;78.60;;;;;;7644500;22;82785;-65
2022/08/18 07:27:48;;;;;;;49.65;24.13;;;26.90;78.20;;;;;;7644351;22;83416;-66
2022/08/18 07:30:48;;;;;;;150.20;67.15;;;27.00;78.10;;;;;;7644274;22;82910;-65
2022/08/18 07:33:49;;;;;;;199.60;86.10;;;27.00;77.60;;;;;;7644546;22;82800;-71
2022/08/18 07:36:49;;;;;;;238.77;92.25;;;27.10;77.70;;;;;;7645394;22;83154;-64
2022/08/18 07:39:50;;;;;;;168.40;72.50;;;27.10;77.80;;;;;;7644141;22;83122;-64
2022/08/18 07:42:50;;;;;;;139.18;59.70;;;27.10;78.00;;;;;;7642665;22;84287;-64
2022/08/18 07:45:51;;;;;;;108.85;46.40;;;27.10;78.70;;;;;;7644312;22;83840;-64
2022/08/18 07:48:51;;;;;;;103.15;43.35;;;27.10;78.70;;;;;;7644233;22;83358;-64
2022/08/18 07:51:52;;;;;;;89.18;34.72;;;27.10;77.90;;;;;;7644066;22;83660;-63
2022/08/18 07:54:52;;;;;;;76.78;31.92;;;27.20;77.40;;;;;;7644330;22;83069;-64
2022/08/18 07:57:53;;;;;;;63.10;28.80;;;27.20;77.60;;;;;;7644006;22;83928;-65
2022/08/18 08:00:53;;;;;;;44.33;21.23;;;27.20;77.40;;;;;;7643869;22;82972;-64
2022/08/18 08:03:54;;;;;;;31.60;17.45;;;27.20;77.10;;;;;;7643594;22;83458;-64
2022/08/18 08:06:55;;;;;;;28.10;14.88;;;27.20;77.70;;;;;;7643722;22;83201;-63
2022/08/18 08:09:55;;;;;;;19.70;14.00;;;27.20;77.60;;;;;;7643801;22;89784;-64
2022/08/18 08:12:56;;;;;;;21.48;12.98;;;27.20;77.80;;;;;;7644031;22;82921;-63
2022/08/18 08:15:56;;;;;;;19.10;13.32;;;27.20;78.20;;;;;;7643975;22;82759;-64
2022/08/18 08:18:57;;;;;;;22.20;12.60;;;27.20;77.50;;;;;;7643644;22;82839;-64
2022/08/18 08:21:57;;;;;;;20.45;11.75;;;27.30;77.30;;;;;;7643859;22;83126;-64
2022/08/18 08:24:58;;;;;;;16.98;11.70;;;27.30;77.60;;;;;;7643750;22;83220;-65
2022/08/18 08:27:59;;;;;;;19.35;12.55;;;27.30;77.50;;;;;;7645251;22;83807;-64
2022/08/18 08:30:59;;;;;;;19.73;11.52;;;27.30;77.40;;;;;;7646456;22;83851;-63
2022/08/18 08:34:00;;;;;;;17.30;11.57;;;27.30;77.60;;;;;;7644327;22;84053;-63
2022/08/18 08:37:01;;;;;;;19.48;11.15;;;27.40;77.10;;;;;;7646330;22;90322;-63
2022/08/18 08:40:01;;;;;;;24.48;11.35;;;27.40;77.00;;;;;;7646741;22;82774;-63
2022/08/18 08:43:02;;;;;;;16.85;11.18;;;27.40;76.50;;;;;;7646690;22;84066;-65
2022/08/18 08:46:02;;;;;;;15.45;11.05;;;27.50;76.70;;;;;;7645748;22;83323;-64
2022/08/18 08:49:03;;;;;;;17.25;11.45;;;27.50;76.20;;;;;;7646006;22;82906;-64
2022/08/18 08:52:03;;;;;;;20.08;12.27;;;27.60;76.10;;;;;;7646231;22;82919;-63
2022/08/18 08:55:04;;;;;;;23.25;12.15;;;27.60;76.10;;;;;;7646354;22;83469;-64
2022/08/18 08:58:04;;;;;;;18.13;12.82;;;27.60;76.90;;;;;;7645500;22;83954;-63
2022/08/18 09:01:05;;;;;;;19.80;12.75;;;27.60;77.10;;;;;;7644528;22;83289;-63
2022/08/18 09:04:05;;;;;;;16.10;11.85;;;27.60;76.80;;;;;;7645370;22;82943;-64
2022/08/18 09:07:06;;;;;;;19.42;10.43;;;27.70;76.80;;;;;;7643938;22;84202;-63
2022/08/18 09:10:06;;;;;;;18.55;10.32;;;27.70;75.30;;;;;;7643836;22;83145;-64
2022/08/18 09:13:07;;;;;;;16.38;11.27;;;27.80;74.90;;;;;;7645547;22;82756;-62
2022/08/18 09:16:07;;;;;;;15.98;11.32;;;27.80;74.80;;;;;;7645358;22;84150;-64
2022/08/18 09:19:10;;;;;;;16.25;11.07;;;27.80;75.20;;;;;;7646279;22;82736;-64
2022/08/18 09:22:11;;;;;;;16.83;11.43;;;27.90;75.20;;;;;;7644681;22;83234;-64
2022/08/18 09:25:11;;;;;;;18.58;10.70;;;27.90;74.60;;;;;;7644356;22;82836;-63
2022/08/18 09:28:12;;;;;;;21.92;11.35;;;27.90;74.40;;;;;;7646144;22;82784;-63
2022/08/18 09:31:12;;;;;;;16.58;9.85;;;27.90;74.40;;;;;;7645791;22;84035;-63
2022/08/18 09:34:13;;;;;;;14.77;10.60;;;27.90;71.40;;;;;;7649750;22;83923;-63
2022/08/18 09:37:13;;;;;;;13.88;10.82;;;27.90;70.90;;;;;;7645646;22;82867;-63
2022/08/18 09:43:33;;;;;;;12.20;9.07;;;28.00;71.60;;;;;;7649186;22;82899;-63
2022/08/18 09:46:34;;;;;;;13.45;9.50;;;28.00;70.70;;;;;;7648677;22;80297;-64
2022/08/18 09:49:34;;;;;;;15.48;9.23;;;27.90;69.70;;;;;;7648931;22;80154;-63
2022/08/18 09:52:35;;;;;;;13.48;9.90;;;28.00;69.90;;;;;;7649909;22;80285;-64
2022/08/18 09:55:35;;;;;;;15.35;9.10;;;27.90;69.70;;;;;;7649668;22;80275;-64
2022/08/18 09:58:35;;;;;;;13.60;9.25;;;27.90;69.80;;;;;;7649360;22;81158;-63
2022/08/18 10:01:37;;;;;;;14.40;9.65;;;28.00;69.90;;;;;;7649577;22;80331;-64
2022/08/18 10:04:50;;;;;;;19.30;9.00;;;28.00;69.80;;;;;;7649478;22;81058;-63
2022/08/18 10:07:57;;;;;;;20.88;10.85;;;28.10;69.90;;;;;;7648182;22;84986;-63
2022/08/18 10:10:57;;;;;;;17.63;10.25;;;28.10;69.80;;;;;;7645264;22;82860;-64
2022/08/18 10:13:58;;;;;;;16.15;10.38;;;28.10;70.10;;;;;;7644504;22;83272;-63
2022/08/18 10:16:58;;;;;;;19.80;10.70;;;28.20;70.20;;;;;;7644743;22;83362;-64
2022/08/18 10:19:59;;;;;;;17.90;8.55;;;28.20;68.20;;;;;;7644986;22;83972;-63
2022/08/18 10:23:00;;;;;;;13.88;8.55;;;28.30;67.40;;;;;;7649892;22;84175;-63
2022/08/18 10:26:01;;;;;;;24.45;9.23;;;28.30;68.80;;;;;;7649289;22;80614;-63
2022/08/18 10:29:01;;;;;;;18.33;9.65;;;28.30;68.70;;;;;;7649219;22;80776;-64
2022/08/18 10:32:02;;;;;;;17.25;9.27;;;28.30;68.70;;;;;;7648803;22;80081;-64
2022/08/18 10:35:02;;;;;;;14.77;9.32;;;28.30;68.40;;;;;;7648440;22;80520;-64
2022/08/18 10:38:03;;;;;;;11.80;8.55;;;28.30;68.40;;;;;;7649279;22;80304;-64
2022/08/18 10:41:03;;;;;;;12.07;8.80;;;28.30;66.50;;;;;;7648939;22;80156;-64
2022/08/18 10:44:04;;;;;;;12.73;8.35;;;28.20;67.20;;;;;;7649150;22;80465;-64
2022/08/18 10:47:04;;;;;;;10.50;7.95;;;28.20;66.90;;;;;;7648821;22;80472;-65
2022/08/18 10:50:05;;;;;;;18.48;9.20;;;28.20;67.00;;;;;;7648481;22;80510;-66
2022/08/18 10:53:05;;;;;;;16.40;8.60;;;28.20;67.30;;;;;;7648677;22;87229;-65
2022/08/18 10:56:06;;;;;;;17.60;8.68;;;28.30;67.40;;;;;;7649461;22;80228;-64
2022/08/18 10:59:06;;;;;;;17.17;8.38;;;28.30;67.50;;;;;;7648933;22;80301;-65
2022/08/18 11:02:07;;;;;;;10.95;8.52;;;28.40;67.70;;;;;;7648819;22;80553;-65
2022/08/18 11:05:07;;;;;;;12.55;8.38;;;28.40;66.70;;;;;;7649274;22;80292;-66
2022/08/18 11:08:08;;;;;;;16.90;8.52;;;28.50;67.80;;;;;;7648938;22;80410;-64
2022/08/18 11:11:08;;;;;;;13.15;8.25;;;28.50;67.80;;;;;;7648378;22;80402;-64
2022/08/18 11:14:09;;;;;;;9.98;7.30;;;28.50;67.80;;;;;;7648692;22;80089;-64
2022/08/18 11:17:09;;;;;;;11.23;7.53;;;28.50;67.70;;;;;;7648225;22;81302;-64
2022/08/18 11:20:09;;;;;;;15.20;7.75;;;28.50;67.30;;;;;;7648612;22;80805;-66
2022/08/18 11:23:10;;;;;;;10.43;7.00;;;28.50;65.90;;;;;;7648743;22;80567;-65
2022/08/18 11:26:11;;;;;;;12.82;7.45;;;28.60;65.00;;;;;;7648607;22;80370;-65
2022/08/18 11:29:11;;;;;;;12.93;6.90;;;28.70;64.00;;;;;;7649791;22;80573;-63
2022/08/18 11:32:11;;;;;;;13.15;7.50;;;28.70;64.60;;;;;;7650746;22;80326;-78
2022/08/18 11:35:12;;;;;;;12.35;8.32;;;28.80;65.00;;;;;;7650102;22;80282;-78
2022/08/18 11:38:13;;;;;;;29.85;14.70;;;28.70;66.10;;;;;;7650475;22;80101;-76
2022/08/18 11:41:14;;;;;;;23.17;11.20;;;28.70;66.50;;;;;;7644973;22;83607;-66
2022/08/18 11:44:15;;;;;;;22.60;10.40;;;28.60;65.70;;;;;;7645063;22;83321;-66
2022/08/18 11:47:15;;;;;;;17.55;8.90;;;28.60;65.60;;;;;;7644870;22;83137;-65
2022/08/18 11:50:17;;;;;;;15.52;8.52;;;28.60;65.60;;;;;;7648647;22;84011;-65
2022/08/18 11:53:17;;;;;;;18.80;8.68;;;28.70;66.00;;;;;;7648352;22;81325;-65
2022/08/18 11:56:18;;;;;;;12.80;8.55;;;28.70;65.70;;;;;;7648346;22;81998;-65
2022/08/18 11:59:19;;;;;;;18.23;7.53;;;28.80;65.00;;;;;;7648732;22;80193;-66
2022/08/18 12:02:20;;;;;;;11.15;7.00;;;28.80;65.70;;;;;;7648707;22;81641;-65
2022/08/18 12:05:21;;;;;;;11.75;6.88;;;28.70;64.90;;;;;;7650195;22;80252;-65
2022/08/18 12:08:22;;;;;;;14.23;6.57;;;28.80;65.10;;;;;;7650099;22;80440;-65
2022/08/18 12:11:22;;;;;;;11.95;6.95;;;28.70;64.60;;;;;;7649538;22;80460;-65
2022/08/18 12:14:23;;;;;;;12.88;7.38;;;28.70;64.10;;;;;;7649697;22;81207;-65
2022/08/18 12:17:23;;;;;;;9.43;7.07;;;28.60;64.60;;;;;;7649928;22;80823;-64
2022/08/18 12:20:24;;;;;;;12.60;7.40;;;28.60;64.50;;;;;;7650606;22;80340;-64
2022/08/18 12:23:24;;;;;;;12.18;6.00;;;28.60;64.50;;;;;;7650920;22;81133;-65
2022/08/18 12:26:25;;;;;;;12.15;7.00;;;28.60;64.10;;;;;;7650566;22;81368;-74
2022/08/18 12:29:25;;;;;;;15.30;6.63;;;28.70;64.00;;;;;;7651973;22;86558;-72
2022/08/18 12:32:26;;;;;;;12.20;6.45;;;28.70;64.10;;;;;;7651214;22;81398;-64
2022/08/18 12:35:26;;;;;;;10.55;5.63;;;28.70;63.90;;;;;;7649910;22;80023;-64
2022/08/18 12:38:27;;;;;;;9.68;6.20;;;28.80;63.00;;;;;;7650173;22;80907;-64
2022/08/18 12:41:27;;;;;;;9.18;6.38;;;28.90;60.50;;;;;;7650123;22;80474;-64
2022/08/18 12:44:28;;;;;;;11.50;7.07;;;29.00;60.20;;;;;;7650012;22;80313;-64
2022/08/18 12:47:29;;;;;;;8.77;6.45;;;29.00;61.30;;;;;;7649303;22;81236;-64
2022/08/18 12:50:29;;;;;;;8.32;6.03;;;29.00;61.20;;;;;;7649240;22;80600;-65
2022/08/18 12:53:30;;;;;;;11.52;6.90;;;29.00;60.40;;;;;;7645772;22;80971;-66
2022/08/18 12:56:30;;;;;;;23.00;6.20;;;29.00;61.30;;;;;;7644453;22;80324;-65
2022/08/18 12:59:31;;;;;;;11.40;5.78;;;29.10;59.00;;;;;;7646088;22;80440;-65
2022/08/18 13:02:31;;;;;;;7.93;6.20;;;29.10;60.70;;;;;;7647754;22;80979;-65
2022/08/18 13:05:32;;;;;;;9.40;6.80;;;29.00;61.20;;;;;;7647910;22;80592;-65
2022/08/18 13:08:32;;;;;;;11.13;6.75;;;29.00;61.00;;;;;;7648194;22;80544;-65
2022/08/18 13:11:33;;;;;;;9.82;7.40;;;29.10;61.60;;;;;;7649012;22;81228;-66
2022/08/18 13:14:33;;;;;;;12.07;6.60;;;29.10;60.80;;;;;;7647732;22;80296;-65
2022/08/18 13:17:34;;;;;;;12.13;6.70;;;29.20;59.70;;;;;;7648781;22;80483;-66
2022/08/18 13:20:35;;;;;;;15.93;6.70;;;29.30;59.70;;;;;;7649174;22;80433;-66
2022/08/18 13:23:35;;;;;;;14.32;6.63;;;29.30;59.00;;;;;;7647851;22;80356;-66
2022/08/18 13:26:36;;;;;;;13.98;6.40;;;29.40;59.30;;;;;;7648889;22;80591;-66
2022/08/18 13:29:36;;;;;;;9.00;6.03;;;29.30;59.70;;;;;;7648762;22;80683;-65
2022/08/18 13:32:37;;;;;;;13.30;6.88;;;29.20;60.40;;;;;;7648784;22;80418;-66
2022/08/18 13:35:37;;;;;;;12.43;6.55;;;29.30;59.30;;;;;;7647647;22;80299;-66
2022/08/18 13:38:41;;;;;;;9.32;5.97;;;29.30;60.00;;;;;;7647910;22;81727;-66
2022/08/18 13:41:42;;;;;;;14.27;7.00;;;29.30;60.40;;;;;;7647684;22;80236;-66
2022/08/18 13:44:42;;;;;;;11.35;7.38;;;29.30;60.70;;;;;;7648217;22;80629;-66
2022/08/18 13:47:43;;;;;;;12.93;6.88;;;29.20;60.90;;;;;;7648373;22;80489;-68
2022/08/18 13:50:44;;;;;;;8.18;6.40;;;29.20;61.00;;;;;;7648272;22;80346;-66
2022/08/18 13:53:45;;;;;;;19.15;7.00;;;29.10;61.60;;;;;;7648314;22;80143;-67
2022/08/18 13:56:45;;;;;;;16.58;6.38;;;29.10;60.60;;;;;;7648477;22;81440;-66
2022/08/18 13:59:46;;;;;;;10.55;7.15;;;29.20;61.00;;;;;;7649148;22;80433;-67
2022/08/18 14:02:54;;;;;;;10.75;6.72;;;29.10;61.20;;;;;;7648564;22;80850;-66
2022/08/18 14:05:57;;;;;;;12.57;7.10;;;29.00;60.90;;;;;;7648175;22;81377;-66
2022/08/18 14:08:57;;;;;;;9.05;6.80;;;28.90;61.30;;;;;;7647999;22;80719;-66
2022/08/18 14:11:58;;;;;;;12.18;7.18;;;28.90;61.60;;;;;;7648098;22;79993;-65
2022/08/18 14:14:58;;;;;;;11.25;6.82;;;28.90;61.40;;;;;;7646278;22;80553;-65
2022/08/18 14:17:58;;;;;;;12.10;6.88;;;28.90;61.70;;;;;;7646312;22;80536;-67
2022/08/18 14:27:38;;;;;;;13.13;7.13;;;29.00;61.10;;;;;;7647941;22;80316;-66
2022/08/18 14:30:38;;;;;;;10.88;7.22;;;28.90;61.00;;;;;;7647348;22;80357;-66
2022/08/18 14:33:39;;;;;;;7.80;6.63;;;28.80;60.90;;;;;;7649419;22;80198;-66
2022/08/18 14:36:39;;;;;;;11.82;7.18;;;28.80;61.00;;;;;;7648474;22;80717;-66
2022/08/18 14:39:40;;;;;;;11.25;6.13;;;28.70;61.30;;;;;;7647514;22;81228;-66
2022/08/18 14:42:41;;;;;;;12.10;6.68;;;28.80;61.80;;;;;;7648241;22;81724;-67
2022/08/18 14:45:47;;;;;;;10.70;6.60;;;28.80;61.70;;;;;;7647731;22;80492;-66
2022/08/18 14:48:48;;;;;;;9.27;6.55;;;28.80;62.50;;;;;;7647204;22;81646;-66
2022/08/18 14:51:49;;;;;;;10.70;6.93;;;28.80;61.60;;;;;;7648849;22;81349;-64
2022/08/18 14:54:49;;;;;;;30.65;11.95;;;28.70;62.00;;;;;;7648726;22;80423;-65
2022/08/18 14:57:50;;;;;;;33.47;10.20;;;28.70;61.80;;;;;;7643772;22;82855;-65
2022/08/18 15:00:50;;;;;;;36.92;12.27;;;28.60;62.10;;;;;;7643554;22;84448;-65
2022/08/18 15:03:51;;;;;;;15.85;8.80;;;28.70;62.10;;;;;;7644957;22;82974;-64
2022/08/18 15:06:52;;;;;;;21.40;9.00;;;28.70;61.90;;;;;;7648317;22;83077;-65
2022/08/18 15:09:53;;;;;;;15.65;8.70;;;28.70;62.30;;;;;;7643937;22;82960;-61
2022/08/18 15:12:53;;;;;;;17.95;8.30;;;28.80;61.80;;;;;;7648788;22;80591;-65
2022/08/18 15:15:54;;;;;;;23.77;8.65;;;28.80;62.10;;;;;;7647228;22;81566;-65
2022/08/18 15:18:55;;;;;;;19.35;9.43;;;28.70;62.30;;;;;;7649216;22;80339;-63
2022/08/18 15:28:34;;;;;;;12.50;7.07;;;28.60;63.40;;;;;;7649593;22;80619;-62
2022/08/18 15:31:35;;;;;;;12.82;6.65;;;28.60;63.40;;;;;;7649941;22;80307;-62
2022/08/18 15:34:35;;;;;;;11.32;5.88;;;28.60;63.30;;;;;;7649946;22;80667;-62
2022/08/18 15:37:38;;;;;;;13.18;7.45;;;28.60;63.50;;;;;;7648345;22;81783;-67
2022/08/18 15:40:38;;;;;;;23.88;6.28;;;28.60;63.40;;;;;;7649389;22;80678;-61
2022/08/18 15:43:39;;;;;;;21.33;7.05;;;28.60;63.90;;;;;;7649135;22;80115;-62
2022/08/18 15:46:39;;;;;;;11.00;6.82;;;28.60;64.10;;;;;;7649264;22;80434;-63